Latest Coastal Weather Observations for Nullarbor

IDS60701

Issued at 3:25 pm CDT Sunday 23 November 2014 (issued every 10 minutes, with the page automatically refreshed every 10 minutes)

About coastal observations | Map of coastal stations | Coastal observations for SA | Marine services | Other Formats
Station Details ID: 018106 Name: NULLARBOR Lat: -31.45 Lon: 130.90 Height: 64.0 m
Data from the previous 72 hours. | See also: Recent months at Nullarbor
Date/Time
CDT
Temp

°C
Wind Pressure Rain
since 9am
mm
Weather Cloud Vis
km
Sea
Height
m
Swell
Dir
 
Speed
knots
Gust
knots
hPa Trend Height
m
Period
s
Dir
23/03:00pm 27.2 SSE 18 23 1007.4 - 0.0 - - 10 - - - -
23/02:30pm 26.4 SSE 16 21 1007.7 - 0.0 - - 10 - - - -
23/02:00pm 26.2 SSE 14 19 1008.4 - 0.0 - - 10 - - - -
23/01:30pm 26.1 S 13 19 1008.8 - 0.0 - - 10 - - - -
23/01:00pm 26.4 SSE 13 16 1008.8 - 0.0 - - 10 - - - -
23/12:30pm 27.8 ESE 11 16 1008.6 - 0.0 - - 10 - - - -
23/12:00pm 27.0 ESE 9 15 1009.0 - 0.0 - - 10 - - - -
23/11:30am 25.5 ESE 8 14 1009.5 - 0.0 - - 10 - - - -
23/11:00am 24.8 E 9 13 1009.8 - 0.0 - - 10 - - - -
23/10:30am 23.6 E 10 14 1010.4 - 0.0 - - 10 - - - -
23/10:00am 22.6 ESE 10 13 1010.9 - 0.0 - - 10 - - - -
23/09:30am 21.6 ESE 11 17 1011.0 - 0.0 - - 10 - - - -
23/09:00am 20.7 SE 10 14 1011.0 - 0.0 - - 10 - - - -
23/08:30am 19.6 SE 11 13 1010.9 - 0.0 - - 10 - - - -
23/08:00am 17.9 SE 8 11 1010.7 - 0.0 - - 10 - - - -
23/07:30am 15.3 SSE 6 7 1010.8 - 0.0 - - 10 - - - -
23/07:00am 12.9 SE 7 7 1010.9 - 0.0 - - 10 - - - -
23/06:30am 12.7 SE 6 6 1010.7 - 0.0 - - 10 - - - -
23/06:00am 12.8 SE 5 6 1010.6 - 0.0 - - 10 - - - -
23/05:30am 13.3 SE 5 6 1010.7 - 0.0 - - 10 - - - -
23/05:00am 13.4 SE 6 7 1010.6 - 0.0 - - 10 - - - -
23/04:30am 14.6 E 6 8 1010.5 - 0.0 - - 10 - - - -
23/04:00am 15.3 ESE 8 10 1010.2 - 0.0 - - 10 - - - -
23/03:30am 15.7 E 7 10 1010.2 - 0.0 - - 10 - - - -
23/03:23am 16.1 E 8 11 1010.1 - 0.0 - - 9 - - - -
23/03:03am 16.3 E 8 10 1010.1 - 0.0 - - 7 - - - -
23/03:00am 16.3 E 7 10 1010.1 - 0.0 - Mostly clear 8 - - - -
23/02:30am 16.8 ESE 10 13 1010.1 - 0.0 - - 10 - - - -
23/02:00am 17.0 ESE 11 13 1010.3 - 0.0 - - 10 - - - -
23/01:30am 17.1 ESE 12 16 1010.6 - 0.0 - - 10 - - - -
23/01:00am 17.2 ESE 13 16 1010.9 - 0.0 - - 10 - - - -
23/12:30am 17.4 ESE 15 19 1011.2 - 0.0 - - 10 - - - -
23/12:00am 17.5 SE 14 18 1011.5 - 0.0 - - 10 - - - -
 
Date/Time
CDT
Temp

°C
Wind Pressure Rain
since 9am
mm
Weather Cloud Vis
km
Sea
Height
m
Swell
Dir
 
Speed
knots
Gust
knots
hPa Trend Height
m
Period
s
Dir
22/11:30pm 17.6 SE 14 18 1011.8 - 0.0 - - 10 - - - -
22/11:00pm 17.7 SE 14 18 1011.8 - 0.0 - - 10 - - - -
22/10:30pm 17.8 SE 15 19 1011.8 - 0.0 - - 10 - - - -
22/10:00pm 17.9 SSE 15 19 1011.8 - 0.0 - - 10 - - - -
22/09:30pm 18.0 SSE 15 18 1012.1 - 0.0 - - 10 - - - -
22/09:00pm 18.2 SSE 13 17 1011.9 - 0.0 - Mostly cloudy 10 - - - -
22/08:30pm 18.6 SSE 15 21 1011.8 - 0.0 - - 10 - - - -
22/08:00pm 19.3 SSE 16 20 1011.7 - 0.0 - - 10 - - - -
22/07:30pm 19.9 SSE 16 23 1011.4 - 0.0 - - 10 - - - -
22/07:00pm 20.4 S 18 24 1011.0 - 0.0 - - 10 - - - -
22/06:30pm 21.2 S 19 24 1010.8 - 0.0 - - 10 - - - -
22/06:00pm 22.0 S 18 23 1010.6 - 0.0 - - 10 - - - -
22/05:30pm 22.8 S 19 24 1010.3 - 0.0 - - 10 - - - -
22/05:00pm 23.5 S 18 22 1010.4 - 0.0 - - 10 - - - -
22/04:30pm 23.7 S 19 24 1010.3 - 0.0 - - 10 - - - -
22/04:00pm 24.2 S 18 23 1010.2 - 0.0 - - 10 - - - -
22/03:30pm 24.7 S 17 22 1010.2 - 0.0 - - 10 - - - -
22/03:00pm 25.1 S 17 23 1010.3 - 0.0 - Mostly clear 10 - - - -
22/02:30pm 25.5 S 17 22 1010.4 - 0.0 - - 10 - - - -
22/02:00pm 25.4 S 16 23 1010.6 - 0.0 - - 10 - - - -
22/01:30pm 25.6 S 15 20 1010.7 - 0.0 - - 10 - - - -
22/01:00pm 26.1 SSE 15 21 1010.8 - 0.0 - - 10 - - - -
22/12:30pm 26.0 SSE 15 21 1010.8 - 0.0 - - 10 - - - -
22/12:00pm 25.5 SSE 15 24 1010.8 - 0.0 - - 10 - - - -
22/11:30am 25.8 SE 14 21 1010.6 - 0.0 - - 10 - - - -
22/11:00am 25.4 SE 13 20 1010.6 - 0.0 - - 10 - - - -
22/10:30am 25.0 SE 13 17 1010.2 - 0.0 - - 10 - - - -
22/10:00am 24.1 SE 13 17 1010.0 - 0.0 - - 10 - - - -
22/09:30am 23.5 SE 12 17 1009.8 - 0.0 - - 10 - - - -
22/09:00am 22.4 ESE 13 16 1009.4 - 0.0 - - 10 - - - -
22/08:30am 21.2 ESE 12 15 1009.2 - 0.0 - - 10 - - - -
22/08:00am 19.8 SE 11 14 1008.9 - 0.0 - - 10 - - - -
22/07:30am 18.2 SE 8 10 1008.5 - 0.0 - - 9 - - - -
22/07:00am 16.8 SE 8 9 1008.3 - 0.0 - - 8 - - - -
22/06:30am 16.5 SSE 8 9 1008.1 - 0.0 - - 8 - - - -
22/06:00am 16.8 SSE 8 9 1007.8 - 0.0 - Mostly cloudy 8 - - - -
22/05:30am 17.1 SSE 9 10 1007.5 - 0.0 - - 9 - - - -
22/05:00am 17.3 S 9 13 1007.2 - 0.0 - - 10 - - - -
22/04:30am 17.7 S 11 13 1007.2 - 0.0 - - 10 - - - -
22/04:00am 17.9 S 12 16 1007.4 - 0.0 - - 10 - - - -
22/03:30am 17.8 S 10 12 1007.6 - 0.0 - - 10 - - - -
22/03:00am 18.1 SSW 10 13 1007.6 - 0.0 - Mostly cloudy 10 - - - -
22/02:30am 18.4 SSW 11 15 1007.5 - 0.0 - - 10 - - - -
22/02:00am 18.9 SSW 13 18 1007.4 - 0.0 - - 10 - - - -
22/01:30am 19.4 SSW 14 18 1007.1 - 0.0 - - 10 - - - -
22/01:00am 20.0 SSW 15 19 1006.9 - 0.0 - - 10 - - - -
22/12:30am 20.5 SSW 17 22 1006.7 - 0.0 - - 10 - - - -
22/12:00am 21.5 SSW 19 24 1006.4 - 0.0 - - 10 - - - -
 
Date/Time
CDT
Temp

°C
Wind Pressure Rain
since 9am
mm
Weather Cloud Vis
km
Sea
Height
m
Swell
Dir
 
Speed
knots
Gust
knots
hPa Trend Height
m
Period
s
Dir
21/11:30pm 22.4 SSW 18 24 1006.1 - 0.0 - - 10 - - - -
21/11:00pm 23.2 SW 17 25 1005.8 - 0.0 - - 10 - - - -
21/10:30pm 25.2 W 14 22 1005.2 - 0.0 - - 10 - - - -
21/10:28pm 26.4 W 12 21 1005.2 - 0.0 - - 10 - - - -
21/10:00pm 31.7 W 9 12 1004.5 - 0.0 - - 10 - - - -
21/09:30pm 29.4 N 9 10 1003.7 - 0.0 - - 10 - - - -
21/09:00pm 30.8 N 9 11 1003.7 - 0.0 - - 10 - - - -
21/08:30pm 32.9 N 11 14 1003.6 - 0.0 - - 10 - - - -
21/08:00pm 34.1 N 11 15 1003.6 - 0.0 - Partly cloudy 10 - - - -
21/07:30pm 35.7 NNW 15 19 1003.5 - 0.0 - - 10 - - - -
21/07:00pm 36.2 NNW 13 18 1003.7 - 0.0 - Partly cloudy 10 - - - -
21/06:30pm 36.2 NNW 15 19 1003.7 - 0.0 - - 10 - - - -
21/06:00pm 35.6 N 18 24 1004.0 - 0.0 - Mostly cloudy 10 - - - -
21/05:30pm 36.9 N 16 24 1004.2 - 0.0 - Partly cloudy 10 - - - -
21/05:03pm 37.4 N 15 25 1004.4 - 0.0 - Partly cloudy 10 - - - -
21/05:00pm 37.3 NNW 13 25 1004.4 - 0.0 - Partly cloudy 10 - - - -
21/04:30pm 35.8 NNW 14 21 1005.0 - 0.0 - Partly cloudy 10 - - - -
21/04:00pm 36.4 N 15 24 1005.5 - 0.0 - Partly cloudy 10 - - - -
21/03:30pm 35.9 N 15 23 1006.0 - 0.0 - Partly cloudy 10 - - - -
21/03:00pm 35.5 N 13 25 1006.5 - 0.0 - - 10 - - - -
21/02:30pm 35.3 N 14 24 1006.9 - 0.0 - - 10 - - - -
21/02:00pm 34.5 N 17 23 1007.6 - 0.0 - - 10 - - - -
21/01:30pm 33.9 N 17 23 1008.3 - 0.0 - - 10 - - - -
21/01:00pm 34.2 N 16 21 1008.6 - 0.0 - - 10 - - - -
21/12:30pm 32.6 N 17 23 1009.2 - 0.0 - - 10 - - - -
21/12:18pm 32.2 N 17 29 1009.3 - 0.0 - - 10 - - - -
21/12:00pm 31.7 NNE 17 24 1009.5 - 0.0 - - 10 - - - -
21/11:30am 31.2 NNE 17 22 1009.8 - 0.0 - - 10 - - - -
21/11:00am 29.1 NNE 17 21 1010.2 - 0.0 - - 10 - - - -
21/10:30am 28.0 NNE 15 21 1010.4 - 0.0 - - 10 - - - -
21/10:00am 25.5 NE 14 19 1010.7 - 0.0 - - 10 - - - -
21/09:30am 23.2 NNE 14 17 1011.0 - 0.0 - - 10 - - - -
21/09:00am 20.1 NNE 15 19 1011.1 - 0.0 - - 10 - - - -
21/08:30am 17.7 NE 15 19 1011.3 - 0.0 - - 10 - - - -
21/08:00am 15.8 NE 14 18 1011.3 - 0.0 - - 10 - - - -
21/07:30am 14.0 NNE 13 17 1011.4 - 0.0 - - 10 - - - -
21/07:00am 13.1 NNE 12 15 1011.4 - 0.0 - - 10 - - - -
21/06:30am 13.2 NE 11 15 1011.0 - 0.0 - - 10 - - - -
21/06:00am 13.3 NE 12 16 1010.9 - 0.0 - Partly cloudy 10 - - - -
21/05:30am 13.2 NE 13 17 1010.9 - 0.0 - - 10 - - - -
21/05:00am 12.6 NE 13 17 1011.1 - 0.0 - - 10 - - - -
21/04:30am 12.4 NE 9 11 1011.5 - 0.0 - - 10 - - - -
21/04:00am 12.2 NE 9 11 1011.9 - 0.0 - - 10 - - - -
21/03:30am 12.6 ENE 9 11 1012.2 - 0.0 - - 10 - - - -
21/03:00am 13.0 ENE 10 12 1012.4 - 0.0 - Mostly clear 10 - - - -
21/02:30am 13.0 ENE 11 13 1012.6 - 0.0 - - 10 - - - -
21/02:00am 12.8 ENE 9 12 1013.2 - 0.0 - - 10 - - - -
21/01:30am 12.9 ENE 8 10 1013.6 - 0.0 - - 10 - - - -
21/01:00am 12.6 E 6 8 1014.0 - 0.0 - - 10 - - - -
21/12:30am 13.4 E 7 8 1014.3 - 0.0 - - 10 - - - -
21/12:00am 13.8 ESE 7 8 1014.2 - 0.0 - Partly cloudy 10 - - - -
 
Date/Time
CDT
Temp

°C
Wind Pressure Rain
since 9am
mm
Weather Cloud Vis
km
Sea
Height
m
Swell
Dir
 
Speed
knots
Gust
knots
hPa Trend Height
m
Period
s
Dir
20/11:30pm 13.9 ESE 7 8 1014.2 - 0.0 - - 10 - - - -
20/11:00pm 14.8 SE 7 9 1014.3 - 0.0 - - 10 - - - -
20/10:30pm 14.9 SSE 7 9 1014.1 - 0.0 - - 10 - - - -
20/10:00pm 15.1 SSE 7 9 1013.8 - 0.0 - - 10 - - - -
20/09:30pm 15.6 SSE 7 8 1013.4 - 0.0 - - 10 - - - -
20/09:00pm 16.3 SSE 8 9 1013.1 - 0.0 - - 10 - - - -
20/08:30pm 17.1 SSE 9 11 1012.9 - 0.0 - - 10 - - - -
20/08:00pm 18.2 SSE 10 14 1012.7 - 0.0 - - 10 - - - -
20/07:30pm 18.9 S 11 13 1012.5 - 0.0 - - 10 - - - -
20/07:00pm 19.5 S 11 15 1012.3 - 0.0 - - 10 - - - -
20/06:30pm 20.3 S 13 16 1012.3 - 0.0 - - 10 - - - -
20/06:00pm 20.7 S 13 17 1012.4 - 0.0 - - 10 - - - -
20/05:30pm 20.7 S 13 18 1012.6 - 0.0 - - 10 - - - -
20/05:00pm 21.5 S 14 19 1012.7 - 0.0 - - 10 - - - -
20/04:30pm 21.5 S 9 12 1012.9 - 0.0 - Partly cloudy 10 - - - -
20/04:00pm 21.6 S 13 19 1013.0 - 0.0 - Partly cloudy 10 - - - -
20/03:30pm 22.4 SSW 12 17 1013.1 - 0.0 - Partly cloudy 10 - - - -

Other Formats:

Comma delimited format used in spreadsheet applications
http://www.bom.gov.au/fwo/IDS60701/IDS60701.94651.axf

JavaScript Object Notation format (JSON) in row-major order
http://www.bom.gov.au/fwo/IDS60701/IDS60701.94651.json